LiveATC.Net - Listen to live air traffic control over the Internet!


ICAO: MMCU  IATA: CUU   Airport: General Roberto Fierro Villalobos International Airport
City: Chihuahua
Country: Mexico   Continent: North America
MMCU METAR Weather: MMCU 200044Z 10013KT 10SM FEW200 20/02 A3003 RMK 8/008
MMCU Flight Activity (FlightAware)

MMCU Twr/App
Feed Status: UP   Listeners: 1
Listen in your browser - HTML5 player (in browser, HTML5)
Click here to listen with your own player (launches your MP3 player)
MMCU Twr/App Audio Archives
FacilityFrequency
Chihuahua Approach121.000
Chihuahua Tower118.400

NOTICE

Unauthorized use prohibited. See LiveATC.net Terms of Service


Find LiveATC Audio Streams


Airport/ARTCC Code

Frequency Search
(e.g., 124.400, 128.75)
Site-wide search
 


Browse LiveATC Feeds
Top 50 LiveATC Feeds
LiveATC Feed Map
Bad Weather Areas

LiveATC FAQ
Offer LiveATC feed
Contact LiveATC.net
Press Inquiries

LiveATC on iPhone
LiveATC on Android

Windows Phone
Windows 8/10

LiveATC Mobile
(Mobile browser)

ATC Audio Archives
Interesting Recordings

LiveATC Forums


Home Page
About LiveATC.net
Make a Donation
Terms of Use
Privacy Policy

Canadian Air Freqs

AIRMETs/SIGMETs

FAA Airport Status
Nat'l Airspace Status
Arrival Demand Charts


Server Software By:
Icecast.org
Liquidsoap